Time;durP1;ratioP1;P1;durP2;ratioP2;P2;SDS_P1;SDS_P2;PMS_P1;PMS_P2;Temp;Humidity;BMP_temperature;BMP_pressure;BME280_temperature;BME280_humidity;BME280_pressure;Samples;Min_cycle;Max_cycle;Signal;HPM_P1;HPM_P2
2021/09/28 00:00:37;;;;;;;5.05;4.65;;;;;;;;;;5115429;28;20180;-84
2021/09/28 00:03:05;;;;;;;6.15;5.65;;;;;;;;;;5115086;28;20223;-84
2021/09/28 00:05:34;;;;;;;5.40;4.90;;;;;;;;;;5115138;28;20206;-84
2021/09/28 00:08:02;;;;;;;4.80;4.40;;;;;;;;;;5114604;28;20223;-84
2021/09/28 00:10:30;;;;;;;4.95;4.45;;;;;;;;;;5115421;28;20203;-84
2021/09/28 00:12:57;;;;;;;4.80;4.40;;;;;;;;;;5114915;28;20206;-84
2021/09/28 00:15:24;;;;;;;4.22;3.92;;;;;;;;;;5115109;28;20670;-84
2021/09/28 00:17:52;;;;;;;4.53;4.13;;;;;;;;;;5114787;28;20219;-84
2021/09/28 00:20:19;;;;;;;4.88;4.47;;;;;;;;;;5114728;28;20681;-84
2021/09/28 00:22:48;;;;;;;5.28;4.60;;;;;;;;;;5114590;28;20255;-84
2021/09/28 00:25:15;;;;;;;4.97;4.43;;;;;;;;;;5117378;28;20184;-85
2021/09/28 00:27:43;;;;;;;5.60;5.03;;;;;;;;;;5119014;28;20654;-84
2021/09/28 00:30:11;;;;;;;4.72;4.20;;;;;;;;;;5119086;28;20188;-84
2021/09/28 00:32:38;;;;;;;4.78;4.22;;;;;;;;;;5118594;28;20206;-84
2021/09/28 00:35:07;;;;;;;3.70;3.40;;;;;;;;;;5118157;28;20218;-84
2021/09/28 00:37:34;;;;;;;4.68;4.15;;;;;;;;;;5118826;28;20191;-83
2021/09/28 00:40:03;;;;;;;5.47;4.22;;;;;;;;;;5118338;28;20592;-84
2021/09/28 00:42:31;;;;;;;4.47;4.00;;;;;;;;;;5118357;28;20176;-84
2021/09/28 00:44:58;;;;;;;5.20;4.72;;;;;;;;;;5118505;28;20208;-84
2021/09/28 00:47:25;;;;;;;4.72;4.32;;;;;;;;;;5118049;28;20694;-84
2021/09/28 00:49:53;;;;;;;5.93;5.00;;;;;;;;;;5118124;28;20216;-83
2021/09/28 00:52:21;;;;;;;8.23;5.10;;;;;;;;;;5118643;28;20195;-84
2021/09/28 00:54:49;;;;;;;6.18;5.35;;;;;;;;;;5119331;28;20223;-83
2021/09/28 00:57:19;;;;;;;5.43;4.93;;;;;;;;;;5118817;28;20249;-84
2021/09/28 00:59:47;;;;;;;2.75;2.53;;;;;;;;;;5118237;28;20213;-84
2021/09/28 01:02:15;;;;;;;2.95;2.70;;;;;;;;;;5118876;28;20199;-84
2021/09/28 01:04:43;;;;;;;4.50;4.10;;;;;;;;;;5118743;28;20208;-84
2021/09/28 01:07:11;;;;;;;4.43;3.92;;;;;;;;;;5117509;27;20214;-84
2021/09/28 01:09:41;;;;;;;5.53;3.50;;;;;;;;;;5118674;28;20249;-84
2021/09/28 01:12:11;;;;;;;3.75;2.90;;;;;;;;;;5116912;28;20199;-84
2021/09/28 01:14:42;;;;;;;4.00;3.55;;;;;;;;;;5117630;28;20180;-84
2021/09/28 01:17:12;;;;;;;2.97;2.78;;;;;;;;;;5118468;28;20198;-82
2021/09/28 01:19:40;;;;;;;3.88;3.25;;;;;;;;;;5118755;28;20721;-84
2021/09/28 01:22:09;;;;;;;3.80;3.50;;;;;;;;;;5118621;28;20187;-84
2021/09/28 01:24:37;;;;;;;3.00;2.70;;;;;;;;;;5118477;28;20211;-84
2021/09/28 01:27:05;;;;;;;2.53;2.33;;;;;;;;;;5118456;28;20192;-83
2021/09/28 01:29:33;;;;;;;2.28;2.10;;;;;;;;;;5117274;28;20220;-84
2021/09/28 01:32:01;;;;;;;2.78;2.60;;;;;;;;;;5117098;28;20195;-83
2021/09/28 01:34:28;;;;;;;2.45;2.25;;;;;;;;;;5096263;28;20544;-84
2021/09/28 01:36:55;;;;;;;3.42;3.20;;;;;;;;;;5095819;28;20200;-84
2021/09/28 01:39:25;;;;;;;2.85;2.65;;;;;;;;;;5096421;28;20725;-84
2021/09/28 01:41:53;;;;;;;2.22;2.13;;;;;;;;;;5097133;28;20192;-84
2021/09/28 01:44:22;;;;;;;4.50;4.10;;;;;;;;;;5096294;28;20204;-83
2021/09/28 01:46:51;;;;;;;3.25;2.95;;;;;;;;;;5097379;28;20184;-84
2021/09/28 01:49:20;;;;;;;4.20;3.47;;;;;;;;;;5096816;28;20220;-83
2021/09/28 01:51:48;;;;;;;3.30;3.10;;;;;;;;;;5108677;28;20206;-83
2021/09/28 01:54:15;;;;;;;3.80;3.50;;;;;;;;;;5115808;28;20180;-84
2021/09/28 01:56:44;;;;;;;3.50;3.22;;;;;;;;;;5116834;28;20200;-83
2021/09/28 01:59:11;;;;;;;3.38;3.08;;;;;;;;;;5116158;28;20223;-83
2021/09/28 02:01:39;;;;;;;4.65;4.22;;;;;;;;;;5116540;28;20199;-84
2021/09/28 02:04:07;;;;;;;5.38;4.93;;;;;;;;;;5116610;28;20213;-83
2021/09/28 02:06:39;;;;;;;3.90;3.60;;;;;;;;;;5117277;28;20191;-83
2021/09/28 02:09:09;;;;;;;4.53;4.13;;;;;;;;;;5116826;28;20223;-83
2021/09/28 02:11:37;;;;;;;2.97;2.67;;;;;;;;;;5116128;28;20184;-84
2021/09/28 02:14:09;;;;;;;3.95;3.65;;;;;;;;;;5116314;28;20207;-84
2021/09/28 02:16:37;;;;;;;3.47;3.17;;;;;;;;;;5116497;28;20195;-84
2021/09/28 02:19:04;;;;;;;4.25;3.25;;;;;;;;;;5116373;28;20222;-83
2021/09/28 02:21:32;;;;;;;4.38;3.97;;;;;;;;;;5116678;28;20203;-83
2021/09/28 02:23:59;;;;;;;3.45;3.15;;;;;;;;;;5116216;28;20570;-83
2021/09/28 02:26:27;;;;;;;3.25;3.00;;;;;;;;;;5115883;28;20214;-83
2021/09/28 02:28:54;;;;;;;3.03;2.83;;;;;;;;;;5116574;28;20220;-83
2021/09/28 02:31:23;;;;;;;4.35;4.03;;;;;;;;;;5115747;28;20203;-83
2021/09/28 02:33:50;;;;;;;4.78;4.38;;;;;;;;;;5115021;28;20195;-84
2021/09/28 02:36:18;;;;;;;3.42;3.17;;;;;;;;;;5116277;28;20392;-83
2021/09/28 02:38:45;;;;;;;3.08;2.88;;;;;;;;;;5116256;28;20226;-83
2021/09/28 02:41:13;;;;;;;3.85;3.55;;;;;;;;;;5116743;28;20203;-84
2021/09/28 02:43:41;;;;;;;4.25;3.90;;;;;;;;;;5116099;28;20615;-84
2021/09/28 02:46:08;;;;;;;3.08;2.78;;;;;;;;;;5095308;28;20223;-83
2021/09/28 02:48:37;;;;;;;6.60;5.03;;;;;;;;;;5095266;28;20611;-84
2021/09/28 02:51:04;;;;;;;4.22;3.42;;;;;;;;;;5096783;28;20184;-84
2021/09/28 02:53:31;;;;;;;5.22;4.82;;;;;;;;;;5109768;28;20204;-83
2021/09/28 02:55:59;;;;;;;4.07;3.78;;;;;;;;;;5116709;28;20245;-84
2021/09/28 02:58:26;;;;;;;5.20;4.70;;;;;;;;;;5116058;28;20230;-84
2021/09/28 03:00:54;;;;;;;5.30;4.80;;;;;;;;;;5116397;28;20223;-84
2021/09/28 03:03:21;;;;;;;5.07;4.60;;;;;;;;;;5117067;28;20216;-84
2021/09/28 03:05:50;;;;;;;5.38;4.97;;;;;;;;;;5115338;28;20584;-83
2021/09/28 03:08:17;;;;;;;4.32;4.03;;;;;;;;;;5115625;28;20215;-83
2021/09/28 03:10:45;;;;;;;4.47;4.18;;;;;;;;;;5114934;28;20623;-83
2021/09/28 03:13:13;;;;;;;5.50;5.00;;;;;;;;;;5115110;28;20681;-83
2021/09/28 03:15:40;;;;;;;4.85;4.35;;;;;;;;;;5115495;28;20199;-83
2021/09/28 03:18:08;;;;;;;5.40;5.00;;;;;;;;;;5115756;28;20219;-84
2021/09/28 03:20:35;;;;;;;4.85;4.45;;;;;;;;;;5115487;28;20192;-83
2021/09/28 03:23:04;;;;;;;5.70;5.20;;;;;;;;;;5115747;28;20658;-83
2021/09/28 03:25:32;;;;;;;5.63;5.13;;;;;;;;;;5114911;28;20223;-83
2021/09/28 03:28:00;;;;;;;5.85;5.28;;;;;;;;;;5115325;28;20603;-83
2021/09/28 03:30:27;;;;;;;4.65;4.25;;;;;;;;;;5114972;28;20188;-83
2021/09/28 03:32:58;;;;;;;6.15;5.63;;;;;;;;;;5103523;28;20199;-83
2021/09/28 03:35:27;;;;;;;6.70;4.70;;;;;;;;;;5113711;28;20536;-83
2021/09/28 03:38:00;;;;;;;6.28;5.68;;;;;;;;;;5113024;28;20223;-82
2021/09/28 03:40:30;;;;;;;5.72;5.15;;;;;;;;;;5101792;28;20196;-83
2021/09/28 03:42:58;;;;;;;5.57;4.90;;;;;;;;;;5095460;28;20289;-83
2021/09/28 03:45:25;;;;;;;5.25;4.78;;;;;;;;;;5113971;28;20626;-83
2021/09/28 03:47:53;;;;;;;5.05;4.55;;;;;;;;;;5094267;28;20220;-83
2021/09/28 03:50:20;;;;;;;4.47;4.10;;;;;;;;;;5094227;28;20247;-83
2021/09/28 03:52:47;;;;;;;4.03;3.72;;;;;;;;;;5100958;28;20199;-83
2021/09/28 03:55:19;;;;;;;5.25;4.70;;;;;;;;;;5114914;28;20206;-83
2021/09/28 03:57:48;;;;;;;4.25;3.88;;;;;;;;;;5114847;28;20599;-83
2021/09/28 04:00:18;;;;;;;5.45;4.95;;;;;;;;;;5114697;28;20226;-83
2021/09/28 04:02:46;;;;;;;5.03;3.70;;;;;;;;;;5114319;28;20669;-83
2021/09/28 04:05:14;;;;;;;3.78;3.35;;;;;;;;;;5114431;28;20624;-83
2021/09/28 04:07:41;;;;;;;2.75;2.55;;;;;;;;;;5114730;28;20199;-83
2021/09/28 04:10:11;;;;;;;3.95;3.65;;;;;;;;;;5114841;28;20176;-83
2021/09/28 04:12:39;;;;;;;4.47;4.15;;;;;;;;;;5115037;28;20191;-83
2021/09/28 04:15:09;;;;;;;3.90;3.45;;;;;;;;;;5114453;28;20198;-83
2021/09/28 04:17:36;;;;;;;6.75;4.63;;;;;;;;;;5114450;28;20180;-83
2021/09/28 04:20:06;;;;;;;3.15;2.90;;;;;;;;;;5113565;28;20708;-83
2021/09/28 04:22:33;;;;;;;3.15;2.95;;;;;;;;;;5115096;28;20190;-83
2021/09/28 04:25:05;;;;;;;2.53;2.40;;;;;;;;;;5114659;28;20199;-82
2021/09/28 04:27:32;;;;;;;3.28;3.05;;;;;;;;;;5095664;28;20188;-83
2021/09/28 04:30:00;;;;;;;2.60;2.40;;;;;;;;;;5093394;28;20245;-83
2021/09/28 04:32:29;;;;;;;3.40;3.10;;;;;;;;;;5106039;28;20212;-83
2021/09/28 04:34:56;;;;;;;2.70;2.50;;;;;;;;;;5113511;28;20795;-83
2021/09/28 04:37:24;;;;;;;2.63;2.42;;;;;;;;;;5114381;28;20180;-83
2021/09/28 04:39:51;;;;;;;2.08;1.98;;;;;;;;;;5113447;28;20253;-81
2021/09/28 04:42:20;;;;;;;2.63;2.42;;;;;;;;;;5097834;28;20191;-83
2021/09/28 04:44:47;;;;;;;4.03;2.22;;;;;;;;;;5102923;28;20567;-82
2021/09/28 04:47:15;;;;;;;2.60;2.40;;;;;;;;;;5094527;28;20651;-83
2021/09/28 04:49:44;;;;;;;2.92;2.63;;;;;;;;;;5107398;28;20227;-83
2021/09/28 04:52:11;;;;;;;3.53;3.22;;;;;;;;;;5112929;28;20599;-83
2021/09/28 04:54:39;;;;;;;2.50;2.30;;;;;;;;;;5114598;28;20654;-83
2021/09/28 04:57:07;;;;;;;2.53;2.40;;;;;;;;;;5115536;28;20286;-81
2021/09/28 04:59:35;;;;;;;3.15;2.85;;;;;;;;;;5114351;28;20310;-82
2021/09/28 05:02:02;;;;;;;2.40;2.20;;;;;;;;;;5114080;28;20721;-85
2021/09/28 05:04:31;;;;;;;2.20;2.08;;;;;;;;;;5092941;28;20223;-85
2021/09/28 05:07:01;;;;;;;5.32;3.50;;;;;;;;;;5101750;28;20224;-86
2021/09/28 05:09:30;;;;;;;4.38;3.75;;;;;;;;;;5094077;28;20227;-85
2021/09/28 05:11:59;;;;;;;2.45;2.28;;;;;;;;;;5094815;28;20189;-85
2021/09/28 05:14:33;;;;;;;3.50;3.20;;;;;;;;;;5101274;28;20241;-86
2021/09/28 05:17:12;;;;;;;2.65;2.40;;;;;;;;;;5096532;28;20192;-85
2021/09/28 05:19:47;;;;;;;2.53;2.33;;;;;;;;;;5096989;28;20302;-85
2021/09/28 05:22:16;;;;;;;3.97;3.67;;;;;;;;;;5097621;28;20287;-83
2021/09/28 05:28:33;;;;;;;4.20;3.20;;;;;;;;;;5030965;28;20260;-83
2021/09/28 05:31:00;;;;;;;3.25;3.05;;;;;;;;;;5072376;28;20207;-83
2021/09/28 05:33:27;;;;;;;2.63;2.42;;;;;;;;;;5116131;28;20287;-83
2021/09/28 05:35:55;;;;;;;3.30;3.00;;;;;;;;;;5115994;28;20711;-83
2021/09/28 05:38:25;;;;;;;2.63;2.42;;;;;;;;;;5103084;27;20220;-84
2021/09/28 05:40:52;;;;;;;3.88;3.58;;;;;;;;;;5101127;28;20188;-84
2021/09/28 05:43:38;;;;;;;5.07;4.68;;;;;;;;;;5102730;28;20219;-84
2021/09/28 05:46:10;;;;;;;2.90;2.70;;;;;;;;;;5113226;28;20215;-84
2021/09/28 05:48:37;;;;;;;2.70;2.50;;;;;;;;;;5096921;28;20232;-83
2021/09/28 05:51:15;;;;;;;5.05;4.57;;;;;;;;;;5094329;28;20196;-84
2021/09/28 05:53:51;;;;;;;4.25;3.85;;;;;;;;;;5094612;28;20218;-84
2021/09/28 05:56:19;;;;;;;3.63;3.38;;;;;;;;;;5096245;28;20185;-85
2021/09/28 05:58:54;;;;;;;3.00;2.80;;;;;;;;;;5095189;28;20220;-86
2021/09/28 06:01:23;;;;;;;2.90;2.70;;;;;;;;;;5095626;28;20623;-84
2021/09/28 06:03:51;;;;;;;3.15;2.95;;;;;;;;;;5096204;28;20181;-84
2021/09/28 06:06:32;;;;;;;4.03;3.63;;;;;;;;;;5096008;28;20686;-85
2021/09/28 06:09:18;;;;;;;3.63;3.33;;;;;;;;;;5095023;28;20227;-86
2021/09/28 06:11:46;;;;;;;4.40;4.00;;;;;;;;;;5095316;28;20185;-85
2021/09/28 06:14:15;;;;;;;3.60;3.30;;;;;;;;;;5095734;28;20209;-84
2021/09/28 06:16:48;;;;;;;4.00;3.70;;;;;;;;;;5095881;28;20253;-84
2021/09/28 06:19:17;;;;;;;4.40;4.00;;;;;;;;;;5102519;28;20231;-84
2021/09/28 06:21:44;;;;;;;3.45;3.15;;;;;;;;;;5115423;28;20188;-82
2021/09/28 06:24:12;;;;;;;3.78;3.47;;;;;;;;;;5115487;28;20208;-85
2021/09/28 06:26:44;;;;;;;5.68;4.93;;;;;;;;;;5115425;28;20724;-84
2021/09/28 06:29:12;;;;;;;5.25;4.85;;;;;;;;;;5105971;28;20288;-83
2021/09/28 06:31:42;;;;;;;4.18;3.78;;;;;;;;;;5095069;28;20189;-86
2021/09/28 06:34:09;;;;;;;5.45;4.95;;;;;;;;;;5094537;28;20961;-83
2021/09/28 06:36:44;;;;;;;7.05;6.05;;;;;;;;;;5094824;28;20569;-83
2021/09/28 06:39:13;;;;;;;4.60;4.20;;;;;;;;;;5094860;28;20238;-83
2021/09/28 06:42:06;;;;;;;4.45;4.13;;;;;;;;;;5095050;28;20187;-86
2021/09/28 06:44:34;;;;;;;3.50;3.20;;;;;;;;;;5098108;28;20204;-85
2021/09/28 06:47:04;;;;;;;4.55;4.22;;;;;;;;;;5104490;28;20204;-85
2021/09/28 06:49:32;;;;;;;4.00;3.70;;;;;;;;;;5103339;28;20714;-84
2021/09/28 06:52:06;;;;;;;3.63;3.33;;;;;;;;;;5114514;28;20200;-84
2021/09/28 06:54:33;;;;;;;4.40;4.00;;;;;;;;;;5114606;28;20198;-83
2021/09/28 06:57:01;;;;;;;3.65;3.35;;;;;;;;;;5106403;28;20188;-83
2021/09/28 06:59:29;;;;;;;5.30;4.78;;;;;;;;;;5094436;28;20226;-84
2021/09/28 07:01:57;;;;;;;5.22;4.82;;;;;;;;;;5094393;28;20195;-84
2021/09/28 07:04:25;;;;;;;3.95;3.65;;;;;;;;;;5095063;28;20178;-84
2021/09/28 07:06:52;;;;;;;4.78;4.38;;;;;;;;;;5094410;28;20223;-83
2021/09/28 07:09:19;;;;;;;4.93;4.60;;;;;;;;;;5094020;28;20217;-83
2021/09/28 07:11:47;;;;;;;3.78;3.50;;;;;;;;;;5094226;28;20200;-85
2021/09/28 07:14:14;;;;;;;4.28;3.92;;;;;;;;;;5094170;28;20573;-84
2021/09/28 07:16:43;;;;;;;3.78;2.83;;;;;;;;;;5096015;28;20204;-83
2021/09/28 07:19:11;;;;;;;2.50;2.30;;;;;;;;;;5094174;28;20365;-83
2021/09/28 07:21:39;;;;;;;2.83;2.63;;;;;;;;;;5094472;28;20193;-83
2021/09/28 07:24:07;;;;;;;3.15;2.95;;;;;;;;;;5093498;28;20217;-84
2021/09/28 07:26:34;;;;;;;3.38;3.15;;;;;;;;;;5092603;28;20570;-83
2021/09/28 07:29:01;;;;;;;3.70;3.33;;;;;;;;;;5092957;28;20223;-84
2021/09/28 07:31:29;;;;;;;3.10;2.90;;;;;;;;;;5104857;28;20548;-84
2021/09/28 07:33:58;;;;;;;3.30;3.05;;;;;;;;;;5100949;28;20199;-85
2021/09/28 07:36:25;;;;;;;2.70;2.50;;;;;;;;;;5113494;28;20199;-85
2021/09/28 07:38:54;;;;;;;2.63;2.42;;;;;;;;;;5097771;28;20216;-86
2021/09/28 07:41:22;;;;;;;3.63;3.33;;;;;;;;;;5104917;28;20657;-86
2021/09/28 07:43:50;;;;;;;4.60;4.20;;;;;;;;;;5101446;28;20208;-86
2021/09/28 07:46:24;;;;;;;4.00;3.65;;;;;;;;;;5103622;28;20196;-87
2021/09/28 07:48:52;;;;;;;3.58;3.28;;;;;;;;;;5102032;28;20226;-85
2021/09/28 07:51:20;;;;;;;4.18;3.80;;;;;;;;;;5097541;28;20196;-84
2021/09/28 07:53:49;;;;;;;3.22;2.92;;;;;;;;;;5104259;28;20198;-83
2021/09/28 07:56:18;;;;;;;2.92;2.72;;;;;;;;;;5113405;28;20195;-86
2021/09/28 07:58:46;;;;;;;2.80;2.60;;;;;;;;;;5108780;28;20212;-89
2021/09/28 08:01:14;;;;;;;3.15;2.88;;;;;;;;;;5092273;28;20932;-85
2021/09/28 08:03:41;;;;;;;3.22;2.92;;;;;;;;;;5094098;28;20196;-86
2021/09/28 08:06:08;;;;;;;3.22;3.00;;;;;;;;;;5098625;28;20180;-86
2021/09/28 08:08:37;;;;;;;2.95;2.75;;;;;;;;;;5108527;28;20311;-86
2021/09/28 08:11:07;;;;;;;3.30;3.05;;;;;;;;;;5098341;28;20203;-86
2021/09/28 08:13:37;;;;;;;3.35;3.15;;;;;;;;;;5113194;28;20661;-86
2021/09/28 08:16:06;;;;;;;2.83;2.63;;;;;;;;;;5103579;28;20189;-87
2021/09/28 08:18:33;;;;;;;3.90;3.47;;;;;;;;;;5096906;28;20215;-86
2021/09/28 08:21:01;;;;;;;5.30;4.80;;;;;;;;;;5113706;28;20184;-83
2021/09/28 08:23:28;;;;;;;4.18;3.45;;;;;;;;;;5101759;28;20192;-86
2021/09/28 08:29:08;;;;;;;3.58;3.22;;;;;;;;;;5107638;28;20215;-86
2021/09/28 08:31:48;;;;;;;2.70;2.50;;;;;;;;;;5106603;28;20231;-86
2021/09/28 08:34:19;;;;;;;2.67;2.22;;;;;;;;;;5098837;28;20184;-86
2021/09/28 08:36:48;;;;;;;3.40;3.05;;;;;;;;;;5102373;28;20192;-87
2021/09/28 08:39:18;;;;;;;2.20;2.10;;;;;;;;;;5113875;28;20654;-86
2021/09/28 08:41:51;;;;;;;3.13;2.88;;;;;;;;;;5114722;28;20229;-87
2021/09/28 08:44:20;;;;;;;3.15;2.65;;;;;;;;;;5103409;28;20209;-87
2021/09/28 08:46:48;;;;;;;3.38;3.03;;;;;;;;;;5097028;28;20184;-86
2021/09/28 08:49:18;;;;;;;2.75;2.55;;;;;;;;;;5107306;28;20239;-86
2021/09/28 08:51:47;;;;;;;2.35;2.25;;;;;;;;;;5107004;28;20197;-86
2021/09/28 08:54:16;;;;;;;3.30;2.65;;;;;;;;;;5118944;28;20657;-87
2021/09/28 08:56:45;;;;;;;2.38;2.17;;;;;;;;;;5113391;28;20195;-85
2021/09/28 08:59:15;;;;;;;2.15;1.95;;;;;;;;;;5105514;28;20220;-86
2021/09/28 09:01:56;;;;;;;3.83;2.60;;;;;;;;;;5116829;28;20629;-85
2021/09/28 09:04:25;;;;;;;2.60;2.40;;;;;;;;;;5117518;28;20227;-86
2021/09/28 09:06:57;;;;;;;3.38;3.08;;;;;;;;;;5118031;28;20282;-88
2021/09/28 09:09:47;;;;;;;2.20;2.05;;;;;;;;;;5117160;28;20219;-87
2021/09/28 09:12:46;;;;;;;3.08;2.60;;;;;;;;;;5115940;28;20208;-89
2021/09/28 09:15:25;;;;;;;2.50;2.30;;;;;;;;;;5114934;28;20195;-89
2021/09/28 09:18:03;;;;;;;1.83;1.73;;;;;;;;;;5116011;28;20281;-88
2021/09/28 09:20:40;;;;;;;2.10;2.00;;;;;;;;;;5115471;28;20199;-87
2021/09/28 09:23:40;;;;;;;2.30;1.90;;;;;;;;;;5116330;28;20558;-87
2021/09/28 09:26:17;;;;;;;2.13;1.80;;;;;;;;;;5115892;28;20176;-87
2021/09/28 09:29:03;;;;;;;2.90;2.70;;;;;;;;;;5110409;28;20223;-90
2021/09/28 09:31:34;;;;;;;2.33;2.22;;;;;;;;;;5095661;28;20231;-88
2021/09/28 09:34:09;;;;;;;4.00;3.15;;;;;;;;;;5095381;28;20201;-89
2021/09/28 09:36:54;;;;;;;2.72;2.53;;;;;;;;;;5095218;28;20196;-89
2021/09/28 09:39:23;;;;;;;3.70;2.78;;;;;;;;;;5095222;28;20234;-87
2021/09/28 09:42:04;;;;;;;3.03;2.72;;;;;;;;;;5095640;28;20189;-89
2021/09/28 09:44:50;;;;;;;2.33;2.17;;;;;;;;;;5095282;28;20283;-89
2021/09/28 09:47:33;;;;;;;3.05;2.40;;;;;;;;;;5095133;28;20682;-89
2021/09/28 09:50:15;;;;;;;2.65;2.28;;;;;;;;;;5094207;28;20289;-87
2021/09/28 09:53:08;;;;;;;2.60;2.40;;;;;;;;;;5095214;28;20196;-89
2021/09/28 09:55:47;;;;;;;2.20;1.92;;;;;;;;;;5095259;28;20227;-88
2021/09/28 09:58:15;;;;;;;1.30;1.20;;;;;;;;;;5094379;28;20611;-87
2021/09/28 10:00:43;;;;;;;2.35;1.38;;;;;;;;;;5094808;28;20245;-91
2021/09/28 10:03:17;;;;;;;3.33;1.50;;;;;;;;;;5094717;28;20844;-90
2021/09/28 10:05:54;;;;;;;2.53;1.70;;;;;;;;;;5094484;28;20199;-90
2021/09/28 10:08:42;;;;;;;1.85;1.75;;;;;;;;;;5094622;28;20322;-90
2021/09/28 10:11:21;;;;;;;3.67;3.38;;;;;;;;;;5093550;28;20998;-90
2021/09/28 10:13:59;;;;;;;2.25;2.08;;;;;;;;;;5094245;28;20233;-91
2021/09/28 10:16:38;;;;;;;2.75;2.55;;;;;;;;;;5094303;28;20199;-89
2021/09/28 10:19:44;;;;;;;2.58;2.00;;;;;;;;;;5095842;28;20220;-90
2021/09/28 10:22:53;;;;;;;1.30;1.30;;;;;;;;;;5094364;28;20204;-93
2021/09/28 10:26:14;;;;;;;2.45;1.55;;;;;;;;;;5094466;28;20238;-90
2021/09/28 10:28:48;;;;;;;1.70;1.55;;;;;;;;;;5094296;28;20228;-90
2021/09/28 10:31:34;;;;;;;2.55;1.65;;;;;;;;;;5095320;28;20603;-88
2021/09/28 10:34:02;;;;;;;2.33;1.80;;;;;;;;;;5095047;28;20180;-86
2021/09/28 10:36:52;;;;;;;1.83;1.52;;;;;;;;;;5095023;28;20181;-87
2021/09/28 10:39:38;;;;;;;1.58;1.42;;;;;;;;;;5094317;28;20281;-90
2021/09/28 10:42:07;;;;;;;1.60;1.50;;;;;;;;;;5114155;28;20252;-86
2021/09/28 10:44:40;;;;;;;2.13;1.88;;;;;;;;;;5114708;28;20184;-86
2021/09/28 10:47:09;;;;;;;4.20;1.80;;;;;;;;;;5114945;28;20219;-86
2021/09/28 10:49:38;;;;;;;1.70;1.60;;;;;;;;;;5112369;28;20235;-85
2021/09/28 10:52:40;;;;;;;1.70;1.50;;;;;;;;;;5114800;28;20722;-86
2021/09/28 10:55:29;;;;;;;1.60;1.50;;;;;;;;;;5114397;27;20199;-85
2021/09/28 10:58:03;;;;;;;2.28;1.88;;;;;;;;;;5115727;28;20222;-85
2021/09/28 11:01:12;;;;;;;3.75;1.92;;;;;;;;;;5104643;28;20544;-87
2021/09/28 11:03:57;;;;;;;2.33;1.77;;;;;;;;;;5113825;28;20684;-87
2021/09/28 11:06:59;;;;;;;1.75;1.60;;;;;;;;;;5113962;28;20187;-86
2021/09/28 11:09:48;;;;;;;4.20;2.30;;;;;;;;;;5113921;28;20280;-86
2021/09/28 11:12:18;;;;;;;1.70;1.60;;;;;;;;;;5114937;28;20200;-86
2021/09/28 11:14:45;;;;;;;2.58;2.00;;;;;;;;;;5115372;28;20188;-86
2021/09/28 11:17:16;;;;;;;2.10;1.90;;;;;;;;;;5115257;28;20209;-86
2021/09/28 11:19:47;;;;;;;2.88;2.55;;;;;;;;;;5102104;28;20231;-86
2021/09/28 11:22:21;;;;;;;5.72;3.67;;;;;;;;;;5094042;28;20189;-85
2021/09/28 11:24:52;;;;;;;2.78;1.95;;;;;;;;;;5093456;28;20670;-87
2021/09/28 11:27:19;;;;;;;2.70;2.38;;;;;;;;;;5093233;28;20203;-87
2021/09/28 11:29:48;;;;;;;2.25;1.70;;;;;;;;;;5101026;28;20220;-87
2021/09/28 11:32:15;;;;;;;1.77;1.27;;;;;;;;;;5094235;28;20193;-85
2021/09/28 11:34:44;;;;;;;1.67;1.58;;;;;;;;;;5094553;28;20659;-87
2021/09/28 11:37:13;;;;;;;1.80;1.45;;;;;;;;;;5094859;28;20772;-89
2021/09/28 11:39:47;;;;;;;1.42;1.25;;;;;;;;;;5093375;28;20217;-90
2021/09/28 11:42:17;;;;;;;1.20;1.15;;;;;;;;;;5094075;28;20200;-90
2021/09/28 11:44:50;;;;;;;3.13;2.10;;;;;;;;;;5108321;28;20210;-89
2021/09/28 11:47:26;;;;;;;1.73;1.55;;;;;;;;;;5113240;28;20183;-90
2021/09/28 11:50:02;;;;;;;1.40;1.25;;;;;;;;;;5112777;28;20227;-89
2021/09/28 11:52:30;;;;;;;2.72;1.50;;;;;;;;;;5112277;28;20614;-87
2021/09/28 11:54:58;;;;;;;1.92;1.65;;;;;;;;;;5113460;28;20538;-87
2021/09/28 11:57:28;;;;;;;1.27;1.10;;;;;;;;;;5113027;28;20200;-89
2021/09/28 12:00:05;;;;;;;2.00;1.80;;;;;;;;;;5097268;28;20569;-89
2021/09/28 12:02:33;;;;;;;3.35;1.50;;;;;;;;;;5092675;28;20203;-88
2021/09/28 12:08:03;;;;;;;1.75;1.27;;;;;;;;;;5092951;28;20216;-87
2021/09/28 12:10:42;;;;;;;3.55;1.80;;;;;;;;;;5112574;28;20226;-89
2021/09/28 12:13:29;;;;;;;2.05;1.30;;;;;;;;;;5113306;28;20195;-88
2021/09/28 12:16:03;;;;;;;1.45;1.35;;;;;;;;;;5113008;28;20195;-89
2021/09/28 12:18:32;;;;;;;1.77;1.67;;;;;;;;;;5109960;28;20212;-87
2021/09/28 12:21:19;;;;;;;1.40;1.30;;;;;;;;;;5094575;28;20196;-88
2021/09/28 12:24:12;;;;;;;1.38;1.27;;;;;;;;;;5096618;28;20183;-88
2021/09/28 12:26:40;;;;;;;1.33;1.23;;;;;;;;;;5096421;28;20283;-87
2021/09/28 12:29:19;;;;;;;1.38;1.25;;;;;;;;;;5096462;28;20227;-87
2021/09/28 12:31:47;;;;;;;1.98;1.50;;;;;;;;;;5096421;28;20216;-85
2021/09/28 12:34:17;;;;;;;1.50;1.40;;;;;;;;;;5096851;28;20184;-88
2021/09/28 12:36:47;;;;;;;2.08;1.35;;;;;;;;;;5097248;28;20189;-88
2021/09/28 12:39:27;;;;;;;2.33;2.13;;;;;;;;;;5104706;28;20223;-88
2021/09/28 12:42:06;;;;;;;1.55;1.15;;;;;;;;;;5117102;28;20240;-86
2021/09/28 12:44:38;;;;;;;2.25;1.40;;;;;;;;;;5114961;28;20290;-87
2021/09/28 12:47:30;;;;;;;1.60;1.42;;;;;;;;;;5116662;28;20188;-86
2021/09/28 12:49:59;;;;;;;0.95;0.95;;;;;;;;;;5100091;28;20224;-87
2021/09/28 12:52:28;;;;;;;1.13;0.90;;;;;;;;;;5095671;28;20266;-88
2021/09/28 12:54:55;;;;;;;1.35;1.13;;;;;;;;;;5095903;28;20215;-88
2021/09/28 12:57:24;;;;;;;1.23;1.17;;;;;;;;;;5094997;28;20200;-88
2021/09/28 12:59:53;;;;;;;1.80;1.70;;;;;;;;;;5109441;28;20230;-89
2021/09/28 13:02:24;;;;;;;3.38;1.27;;;;;;;;;;5115689;28;20194;-87
2021/09/28 13:04:53;;;;;;;1.35;1.25;;;;;;;;;;5116075;28;20210;-88
2021/09/28 13:07:22;;;;;;;1.40;1.10;;;;;;;;;;5115967;28;20211;-88
2021/09/28 13:09:51;;;;;;;2.13;1.52;;;;;;;;;;5100939;28;20220;-89
2021/09/28 13:12:30;;;;;;;1.75;1.65;;;;;;;;;;5096334;28;20546;-90
2021/09/28 13:15:03;;;;;;;2.83;1.15;;;;;;;;;;5096042;28;20200;-90
2021/09/28 13:17:31;;;;;;;2.22;1.38;;;;;;;;;;5095959;28;20183;-89
2021/09/28 13:20:02;;;;;;;1.75;1.33;;;;;;;;;;5096111;28;20666;-90
2021/09/28 13:22:29;;;;;;;0.90;0.90;;;;;;;;;;5096436;28;20260;-91
2021/09/28 13:25:09;;;;;;;1.20;1.20;;;;;;;;;;5096165;28;20180;-90
2021/09/28 13:27:46;;;;;;;1.52;1.20;;;;;;;;;;5096675;28;20200;-90
2021/09/28 13:30:23;;;;;;;1.27;1.17;;;;;;;;;;5096766;28;20200;-91
2021/09/28 13:32:52;;;;;;;1.27;1.10;;;;;;;;;;5096003;28;20192;-92
2021/09/28 13:35:30;;;;;;;2.78;1.30;;;;;;;;;;5096893;28;20225;-89
2021/09/28 13:38:00;;;;;;;0.85;0.85;;;;;;;;;;5097694;28;20239;-90
2021/09/28 13:40:29;;;;;;;1.27;1.25;;;;;;;;;;5115114;28;20192;-88
2021/09/28 13:42:57;;;;;;;1.00;1.00;;;;;;;;;;5116163;28;20206;-90
2021/09/28 13:45:27;;;;;;;1.00;0.90;;;;;;;;;;5116320;28;20212;-91
2021/09/28 13:47:55;;;;;;;1.52;1.30;;;;;;;;;;5116014;28;20591;-90
2021/09/28 13:50:24;;;;;;;1.40;1.00;;;;;;;;;;5096029;28;20221;-90
2021/09/28 13:52:52;;;;;;;1.02;0.93;;;;;;;;;;5095548;28;20192;-90
2021/09/28 13:55:29;;;;;;;0.98;0.98;;;;;;;;;;5094764;28;20208;-89
2021/09/28 13:58:04;;;;;;;1.92;1.65;;;;;;;;;;5095020;28;20244;-89
2021/09/28 14:00:34;;;;;;;0.93;0.80;;;;;;;;;;5094979;28;20279;-89
2021/09/28 14:03:04;;;;;;;1.38;0.98;;;;;;;;;;5094976;28;20189;-89
2021/09/28 14:05:36;;;;;;;2.35;1.80;;;;;;;;;;5094682;28;20556;-89
2021/09/28 14:08:14;;;;;;;1.10;1.10;;;;;;;;;;5094713;28;20232;-87
2021/09/28 14:10:43;;;;;;;2.10;1.20;;;;;;;;;;5094914;28;20210;-88
2021/09/28 14:13:19;;;;;;;0.95;0.93;;;;;;;;;;5094949;28;20292;-89
2021/09/28 14:15:48;;;;;;;0.80;0.80;;;;;;;;;;5094730;28;20547;-89
2021/09/28 14:18:15;;;;;;;1.55;1.10;;;;;;;;;;5094699;28;20224;-87
2021/09/28 14:20:49;;;;;;;0.80;0.80;;;;;;;;;;5094740;28;20177;-86
2021/09/28 14:23:22;;;;;;;1.30;1.05;;;;;;;;;;5094607;28;20196;-87
2021/09/28 14:26:03;;;;;;;3.67;1.55;;;;;;;;;;5094276;28;20675;-88
2021/09/28 14:28:35;;;;;;;0.68;0.68;;;;;;;;;;5097313;28;20214;-87
2021/09/28 14:31:14;;;;;;;1.13;0.85;;;;;;;;;;5114669;28;20222;-88
2021/09/28 14:33:42;;;;;;;3.00;1.38;;;;;;;;;;5114790;28;20634;-87
2021/09/28 14:36:10;;;;;;;0.70;0.70;;;;;;;;;;5113855;28;20187;-86
2021/09/28 14:38:37;;;;;;;1.30;1.20;;;;;;;;;;5109919;28;20237;-87
2021/09/28 14:41:06;;;;;;;0.82;0.68;;;;;;;;;;5094012;28;20192;-88
2021/09/28 14:43:35;;;;;;;0.60;0.60;;;;;;;;;;5094164;28;20196;-86
2021/09/28 14:46:10;;;;;;;0.90;0.90;;;;;;;;;;5093857;28;20204;-87
2021/09/28 14:48:39;;;;;;;2.22;0.98;;;;;;;;;;5094599;28;20223;-90
2021/09/28 14:51:19;;;;;;;1.38;1.27;;;;;;;;;;5095369;28;20196;-89
2021/09/28 14:53:47;;;;;;;1.00;0.75;;;;;;;;;;5094800;28;20298;-88
2021/09/28 14:56:16;;;;;;;3.80;0.90;;;;;;;;;;5094569;28;20204;-88
2021/09/28 14:58:44;;;;;;;1.50;0.88;;;;;;;;;;5094996;28;20209;-89
2021/09/28 15:01:18;;;;;;;0.93;0.85;;;;;;;;;;5098055;28;20287;-91
2021/09/28 15:04:06;;;;;;;0.98;0.90;;;;;;;;;;5096232;28;20199;-90
2021/09/28 15:06:35;;;;;;;0.70;0.70;;;;;;;;;;5094977;28;20311;-88
2021/09/28 15:09:12;;;;;;;1.60;1.08;;;;;;;;;;5095830;28;20226;-92
2021/09/28 15:11:48;;;;;;;1.17;0.60;;;;;;;;;;5095878;28;20215;-91
2021/09/28 15:14:20;;;;;;;0.98;0.98;;;;;;;;;;5095350;28;20680;-91
2021/09/28 15:16:49;;;;;;;0.52;0.50;;;;;;;;;;5097427;28;20204;-91
2021/09/28 15:19:24;;;;;;;1.08;1.08;;;;;;;;;;5097352;28;20729;-91